Time;durP1;ratioP1;P1;durP2;ratioP2;P2;SDS_P1;SDS_P2;PMS_P1;PMS_P2;Temp;Humidity;BMP_temperature;BMP_pressure;BME280_temperature;BME280_humidity;BME280_pressure;Samples;Min_cycle;Max_cycle;Signal;HPM_P1;HPM_P2
2021/03/17 00:00:42;;;;;;;1.90;0.95;;;4.50;98.20;;;;;;5025090;28;20145;-77
2021/03/17 00:03:08;;;;;;;4.15;1.40;;;4.50;98.20;;;;;;5021464;28;20041;-77
2021/03/17 00:05:36;;;;;;;2.72;0.82;;;4.50;98.20;;;;;;5027032;28;20429;-77
2021/03/17 00:08:03;;;;;;;2.95;0.98;;;4.50;98.20;;;;;;5033117;28;20512;-78
2021/03/17 00:10:35;;;;;;;3.58;0.95;;;4.50;98.20;;;;;;5040857;28;20053;-78
2021/03/17 00:13:01;;;;;;;2.38;0.80;;;4.50;98.20;;;;;;5038376;28;20045;-77
2021/03/17 00:15:30;;;;;;;1.88;0.82;;;4.50;98.10;;;;;;5015047;28;20458;-77
2021/03/17 00:17:56;;;;;;;1.15;0.55;;;4.50;98.10;;;;;;5031969;28;20475;-77
2021/03/17 00:20:24;;;;;;;3.50;0.80;;;4.60;98.10;;;;;;5017625;28;20132;-77
2021/03/17 00:22:51;;;;;;;2.35;0.60;;;4.50;98.00;;;;;;5019792;28;20104;-77
2021/03/17 00:25:19;;;;;;;4.32;0.60;;;4.60;98.00;;;;;;5031012;28;20061;-77
2021/03/17 00:27:45;;;;;;;1.27;0.70;;;4.50;98.00;;;;;;5019948;28;20045;-77
2021/03/17 00:30:11;;;;;;;2.00;0.70;;;4.50;98.00;;;;;;5017715;28;20041;-77
2021/03/17 00:32:37;;;;;;;4.05;0.75;;;4.50;98.00;;;;;;5037736;28;20100;-77
2021/03/17 00:35:04;;;;;;;3.08;1.13;;;4.60;98.10;;;;;;5028707;28;20069;-77
2021/03/17 00:37:30;;;;;;;3.13;0.80;;;4.50;98.00;;;;;;5027711;28;20045;-77
2021/03/17 00:39:56;;;;;;;2.70;0.80;;;4.50;98.10;;;;;;5014488;28;20349;-77
2021/03/17 00:42:22;;;;;;;4.07;0.95;;;4.50;98.10;;;;;;5020880;28;20044;-77
2021/03/17 00:44:48;;;;;;;2.50;1.13;;;4.50;98.10;;;;;;5014021;28;20041;-77
2021/03/17 00:47:14;;;;;;;3.72;1.77;;;4.60;98.10;;;;;;5032691;28;20356;-77
2021/03/17 00:49:39;;;;;;;2.00;1.13;;;4.50;98.20;;;;;;5031011;28;20386;-77
2021/03/17 00:52:05;;;;;;;3.67;1.20;;;4.60;98.20;;;;;;5018869;28;20124;-77
2021/03/17 00:54:31;;;;;;;3.97;1.20;;;4.60;98.20;;;;;;5014371;28;20458;-77
2021/03/17 00:56:57;;;;;;;4.88;1.20;;;4.60;98.30;;;;;;5014629;28;20108;-77
2021/03/17 00:59:22;;;;;;;3.08;1.25;;;4.50;98.20;;;;;;5014156;28;20115;-77
2021/03/17 01:01:48;;;;;;;3.75;1.10;;;4.50;98.20;;;;;;5024744;28;20094;-77
2021/03/17 01:04:14;;;;;;;4.50;1.00;;;4.50;98.30;;;;;;5030270;28;20045;-77
2021/03/17 01:06:40;;;;;;;3.63;1.48;;;4.60;98.30;;;;;;5020370;28;20038;-77
2021/03/17 01:09:06;;;;;;;2.97;1.30;;;4.60;98.50;;;;;;5017064;28;20046;-77
2021/03/17 01:11:31;;;;;;;3.55;1.60;;;4.60;98.60;;;;;;5025260;28;20034;-77
2021/03/17 01:13:57;;;;;;;5.18;2.55;;;4.60;98.60;;;;;;5030595;28;20116;-77
2021/03/17 01:16:23;;;;;;;4.95;2.42;;;4.60;98.60;;;;;;5021993;28;20509;-77
2021/03/17 01:18:49;;;;;;;5.55;2.30;;;4.60;98.60;;;;;;5019058;28;20065;-77
2021/03/17 01:21:15;;;;;;;5.28;2.35;;;4.50;98.50;;;;;;5019331;28;20065;-77
2021/03/17 01:23:41;;;;;;;6.10;2.42;;;4.60;98.50;;;;;;5029705;28;20053;-77
2021/03/17 01:26:06;;;;;;;3.85;2.20;;;4.60;98.50;;;;;;5029433;28;20037;-77
2021/03/17 01:28:32;;;;;;;6.13;1.90;;;4.50;98.40;;;;;;5024275;28;20037;-77
2021/03/17 01:30:59;;;;;;;4.47;2.10;;;4.50;98.40;;;;;;5013494;28;20129;-77
2021/03/17 01:33:27;;;;;;;4.53;2.20;;;4.50;98.30;;;;;;5024177;28;20579;-77
2021/03/17 01:35:53;;;;;;;4.50;1.73;;;4.50;98.20;;;;;;5024921;28;20328;-78
2021/03/17 01:38:20;;;;;;;6.25;1.85;;;4.50;98.10;;;;;;5014936;28;20109;-78
2021/03/17 01:40:47;;;;;;;3.97;1.83;;;4.50;98.10;;;;;;5018146;28;20052;-77
2021/03/17 01:43:14;;;;;;;5.22;1.63;;;4.50;98.10;;;;;;5023419;28;20059;-77
2021/03/17 01:45:41;;;;;;;7.18;1.60;;;4.50;98.10;;;;;;5025223;28;20053;-77
2021/03/17 01:48:07;;;;;;;5.38;2.03;;;4.50;98.10;;;;;;5022067;28;20072;-77
2021/03/17 01:50:40;;;;;;;2.83;1.45;;;4.50;98.10;;;;;;5026514;28;20458;-77
2021/03/17 01:53:18;;;;;;;6.32;1.70;;;4.50;98.10;;;;;;5015181;28;20131;-77
2021/03/17 01:55:45;;;;;;;5.85;2.03;;;4.50;98.20;;;;;;5025149;28;20045;-77
2021/03/17 01:58:11;;;;;;;3.13;1.25;;;4.40;98.10;;;;;;5020782;28;20429;-77
2021/03/17 02:00:39;;;;;;;4.22;1.40;;;4.40;98.10;;;;;;5026509;28;20034;-77
2021/03/17 02:03:06;;;;;;;2.85;0.93;;;4.40;98.10;;;;;;5021462;28;20378;-77
2021/03/17 02:05:38;;;;;;;4.90;1.38;;;4.40;98.00;;;;;;5022779;28;20049;-76
2021/03/17 02:08:06;;;;;;;5.80;0.90;;;4.30;98.00;;;;;;5019385;28;20033;-76
2021/03/17 02:10:33;;;;;;;3.83;1.98;;;4.30;97.90;;;;;;5013418;28;20133;-76
2021/03/17 02:13:20;;;;;;;2.78;1.48;;;4.30;97.90;;;;;;5018949;28;20034;-76
2021/03/17 02:16:09;;;;;;;5.70;1.35;;;4.30;97.90;;;;;;5019073;28;20069;-76
2021/03/17 02:19:11;;;;;;;3.03;1.20;;;4.30;97.90;;;;;;5020867;28;20073;-77
2021/03/17 02:21:37;;;;;;;5.50;1.52;;;4.20;97.90;;;;;;5015440;28;20053;-76
2021/03/17 02:24:26;;;;;;;7.40;1.60;;;4.30;98.00;;;;;;5010570;28;20449;-76
2021/03/17 02:27:21;;;;;;;4.82;1.58;;;4.30;98.00;;;;;;5023495;28;20029;-76
2021/03/17 02:30:22;;;;;;;5.88;1.70;;;4.30;98.00;;;;;;5018347;28;20041;-76
2021/03/17 02:32:59;;;;;;;5.13;1.50;;;4.30;98.00;;;;;;5012647;28;20466;-76
2021/03/17 02:35:29;;;;;;;6.40;1.75;;;4.30;98.00;;;;;;5021763;28;20049;-76
2021/03/17 02:37:57;;;;;;;6.90;1.73;;;4.30;98.00;;;;;;5029517;28;20069;-78
2021/03/17 02:40:31;;;;;;;7.00;1.55;;;4.30;98.00;;;;;;5025172;28;20122;-77
2021/03/17 02:43:16;;;;;;;;;;;4.30;98.00;;;;;;5022455;28;20049;-77
2021/03/17 02:45:46;;;;;;;7.20;1.20;;;4.30;97.90;;;;;;5019407;28;19921;-77
2021/03/17 02:48:17;;;;;;;5.78;1.10;;;4.30;97.90;;;;;;5025784;28;20512;-76
2021/03/17 02:50:46;;;;;;;4.95;1.40;;;4.30;97.80;;;;;;5017574;28;20030;-76
2021/03/17 02:53:14;;;;;;;5.32;0.93;;;4.20;97.70;;;;;;5032052;28;20050;-76
2021/03/17 02:55:50;;;;;;;7.45;1.15;;;4.20;97.80;;;;;;5019269;28;20471;-77
2021/03/17 02:58:17;;;;;;;10.18;2.15;;;4.10;97.80;;;;;;5021822;28;20034;-77
2021/03/17 03:00:45;;;;;;;9.50;1.70;;;4.10;97.80;;;;;;5014660;28;20106;-76
2021/03/17 03:03:12;;;;;;;4.40;1.42;;;4.10;97.80;;;;;;5021769;28;20052;-76
2021/03/17 03:05:39;;;;;;;4.65;1.20;;;4.00;97.70;;;;;;5041252;28;20532;-77
2021/03/17 03:08:08;;;;;;;9.05;1.00;;;3.90;97.70;;;;;;5022219;28;20050;-76
2021/03/17 03:10:36;;;;;;;6.88;1.30;;;3.90;97.70;;;;;;5022524;28;20072;-76
2021/03/17 03:13:03;;;;;;;10.00;1.08;;;3.90;97.70;;;;;;5020080;28;20060;-76
2021/03/17 03:15:31;;;;;;;4.63;1.00;;;3.90;97.70;;;;;;5018697;28;20492;-76
2021/03/17 03:17:59;;;;;;;3.53;0.90;;;3.80;97.70;;;;;;5018188;28;20041;-76
2021/03/17 03:20:29;;;;;;;4.93;0.90;;;3.80;97.70;;;;;;5017403;28;20041;-76
2021/03/17 03:22:56;;;;;;;4.05;1.15;;;3.70;97.70;;;;;;5022355;28;20033;-77
2021/03/17 03:25:24;;;;;;;8.50;2.05;;;3.70;97.70;;;;;;5023171;28;20048;-77
2021/03/17 03:27:52;;;;;;;6.38;1.17;;;3.70;97.60;;;;;;5020997;28;20071;-77
2021/03/17 03:30:24;;;;;;;6.65;1.10;;;3.60;97.70;;;;;;5020544;28;20037;-77
2021/03/17 03:32:51;;;;;;;8.63;1.10;;;3.60;97.70;;;;;;5034650;28;20046;-77
2021/03/17 03:35:19;;;;;;;10.85;1.52;;;3.50;97.70;;;;;;5027012;28;20057;-77
2021/03/17 03:37:44;;;;;;;6.90;1.25;;;3.50;97.70;;;;;;5016638;28;20037;-77
2021/03/17 03:40:16;;;;;;;5.65;1.30;;;3.40;97.70;;;;;;5027027;28;20389;-77
2021/03/17 03:42:44;;;;;;;7.03;1.00;;;3.40;97.80;;;;;;5028372;28;20041;-77
2021/03/17 03:45:14;;;;;;;6.75;1.30;;;3.30;97.80;;;;;;5019576;28;20088;-77
2021/03/17 03:47:40;;;;;;;6.88;1.55;;;3.30;97.90;;;;;;5018264;28;20054;-77
2021/03/17 03:50:09;;;;;;;5.57;0.82;;;3.20;97.80;;;;;;5019334;28;20148;-77
2021/03/17 03:53:04;;;;;;;6.10;1.27;;;3.20;97.90;;;;;;5017071;28;20030;-77
2021/03/17 03:55:41;;;;;;;5.38;1.42;;;3.10;97.80;;;;;;5015755;28;20386;-77
2021/03/17 03:58:09;;;;;;;3.55;1.42;;;3.00;98.00;;;;;;5017390;28;20056;-77
2021/03/17 04:00:36;;;;;;;8.93;1.77;;;3.00;97.90;;;;;;5032406;28;20038;-77
2021/03/17 04:03:03;;;;;;;6.68;1.63;;;2.90;97.80;;;;;;5026831;28;20095;-76
2021/03/17 04:05:35;;;;;;;4.65;1.83;;;2.90;97.80;;;;;;5017825;28;20033;-78
2021/03/17 04:08:06;;;;;;;6.35;1.85;;;2.80;97.80;;;;;;5018885;28;20095;-78
2021/03/17 04:10:34;;;;;;;6.88;1.50;;;2.80;97.90;;;;;;5022444;28;20056;-77
2021/03/17 04:13:04;;;;;;;8.15;1.90;;;2.80;98.00;;;;;;5018327;28;20159;-77
2021/03/17 04:15:34;;;;;;;4.90;1.90;;;2.70;98.00;;;;;;5017950;28;20052;-76
2021/03/17 04:18:12;;;;;;;10.70;2.45;;;2.70;98.00;;;;;;5020411;28;20489;-76
2021/03/17 04:20:42;;;;;;;7.47;2.13;;;2.60;97.90;;;;;;5021775;28;20061;-76
2021/03/17 04:23:10;;;;;;;6.68;1.80;;;2.60;97.90;;;;;;5018004;28;20065;-77
2021/03/17 04:25:37;;;;;;;7.35;2.00;;;2.50;98.10;;;;;;5031089;28;20488;-76
2021/03/17 04:28:05;;;;;;;6.65;1.67;;;2.50;98.10;;;;;;5026100;28;20038;-76
2021/03/17 04:30:33;;;;;;;6.25;1.58;;;2.50;98.10;;;;;;5026596;28;20052;-76
2021/03/17 04:33:01;;;;;;;9.10;1.58;;;2.40;98.10;;;;;;5032675;28;20063;-76
2021/03/17 04:35:27;;;;;;;4.30;1.70;;;2.50;98.10;;;;;;5018742;28;20139;-77
2021/03/17 04:37:54;;;;;;;4.72;1.50;;;2.40;98.00;;;;;;5015839;28;20118;-77
2021/03/17 04:40:21;;;;;;;8.68;1.83;;;2.30;98.00;;;;;;5010972;28;20063;-76
2021/03/17 04:42:47;;;;;;;7.75;2.33;;;2.20;97.90;;;;;;5025284;28;20033;-76
2021/03/17 04:45:14;;;;;;;8.70;1.95;;;2.20;98.20;;;;;;5026078;28;20045;-76
2021/03/17 04:47:43;;;;;;;7.13;2.15;;;2.20;98.10;;;;;;5021653;28;20092;-76
2021/03/17 04:50:12;;;;;;;8.48;2.17;;;2.20;98.40;;;;;;5022302;28;20509;-76
2021/03/17 04:52:39;;;;;;;6.22;1.95;;;2.30;98.70;;;;;;5028107;28;20041;-78
2021/03/17 04:55:06;;;;;;;7.65;2.30;;;2.40;98.80;;;;;;5036230;28;20406;-78
2021/03/17 04:57:37;;;;;;;8.82;2.40;;;2.50;99.00;;;;;;5028075;28;20037;-76
2021/03/17 05:00:18;;;;;;;7.30;2.38;;;2.50;99.00;;;;;;5022084;28;20160;-76
2021/03/17 05:03:14;;;;;;;11.20;2.47;;;2.60;99.10;;;;;;5030938;28;20369;-76
2021/03/17 05:05:41;;;;;;;6.40;2.45;;;2.70;99.20;;;;;;5005133;28;20097;-76
2021/03/17 05:08:08;;;;;;;5.10;2.40;;;2.80;99.20;;;;;;5040746;28;20112;-76
2021/03/17 05:10:37;;;;;;;6.57;2.35;;;2.80;99.20;;;;;;5024442;28;20041;-76
2021/03/17 05:13:08;;;;;;;10.20;2.90;;;2.80;99.10;;;;;;5029630;28;20042;-76
2021/03/17 05:15:35;;;;;;;5.82;2.25;;;2.90;99.20;;;;;;5024760;28;20060;-78
2021/03/17 05:18:01;;;;;;;11.98;2.25;;;2.90;99.20;;;;;;5030325;28;20037;-77
2021/03/17 05:20:28;;;;;;;8.93;2.42;;;3.00;99.20;;;;;;5026439;28;20424;-77
2021/03/17 05:22:54;;;;;;;7.55;2.17;;;3.10;99.20;;;;;;5020669;28;20053;-76
2021/03/17 05:25:23;;;;;;;8.82;2.30;;;3.10;99.20;;;;;;5026647;28;20062;-77
2021/03/17 05:27:54;;;;;;;8.55;2.22;;;3.10;99.10;;;;;;5010061;28;20042;-77
2021/03/17 05:30:23;;;;;;;6.13;2.10;;;3.10;99.00;;;;;;5013222;28;20069;-77
2021/03/17 05:32:51;;;;;;;9.30;2.08;;;3.10;98.90;;;;;;5026739;28;20120;-76
2021/03/17 05:35:16;;;;;;;7.63;2.25;;;3.10;98.80;;;;;;5028161;28;20051;-76
2021/03/17 05:37:45;;;;;;;10.38;1.98;;;3.00;98.60;;;;;;5025074;28;20033;-77
2021/03/17 05:40:14;;;;;;;10.77;3.60;;;3.00;98.50;;;;;;5029732;28;20108;-77
2021/03/17 05:42:40;;;;;;;10.23;3.67;;;3.00;98.30;;;;;;5027098;28;20583;-77
2021/03/17 05:45:19;;;;;;;7.97;1.67;;;3.00;98.30;;;;;;5016124;28;20371;-77
2021/03/17 05:47:46;;;;;;;11.30;1.33;;;3.00;98.20;;;;;;5014096;28;20057;-77
2021/03/17 05:50:16;;;;;;;9.57;1.95;;;3.00;98.20;;;;;;5016321;28;20133;-78
2021/03/17 05:52:51;;;;;;;8.55;1.98;;;3.00;98.10;;;;;;5027554;28;20326;-78
2021/03/17 05:55:50;;;;;;;6.53;1.48;;;3.00;98.10;;;;;;5029886;28;20072;-80
2021/03/17 05:58:17;;;;;;;7.50;1.38;;;3.20;97.80;;;;;;5019768;28;20125;-78
2021/03/17 06:00:46;;;;;;;3.40;1.23;;;3.20;97.60;;;;;;5013501;28;20060;-78
2021/03/17 06:03:17;;;;;;;8.05;0.98;;;3.10;97.30;;;;;;5027750;28;20077;-78
2021/03/17 06:05:48;;;;;;;4.57;0.80;;;3.20;97.10;;;;;;5030633;28;20071;-77
2021/03/17 06:08:18;;;;;;;4.00;0.85;;;3.20;97.10;;;;;;5018138;28;20036;-75
2021/03/17 06:10:46;;;;;;;2.75;0.80;;;3.20;97.00;;;;;;5030587;28;20048;-78
2021/03/17 06:13:14;;;;;;;5.10;0.90;;;3.20;97.00;;;;;;5022185;28;20037;-77
2021/03/17 06:15:56;;;;;;;6.13;0.88;;;3.20;97.00;;;;;;5044177;28;20056;-76
2021/03/17 06:18:27;;;;;;;3.05;0.77;;;3.20;97.10;;;;;;5006049;28;20408;-77
2021/03/17 06:20:56;;;;;;;2.78;0.70;;;3.20;97.20;;;;;;5012414;28;20088;-79
2021/03/17 06:23:23;;;;;;;5.97;0.80;;;3.30;97.30;;;;;;5014738;28;20393;-76
2021/03/17 06:25:50;;;;;;;7.40;1.10;;;3.30;97.20;;;;;;5029582;28;20120;-76
2021/03/17 06:28:16;;;;;;;5.45;1.02;;;3.30;97.20;;;;;;5027358;28;20115;-77
2021/03/17 06:30:42;;;;;;;6.22;1.10;;;3.30;97.30;;;;;;5029207;28;20034;-77
2021/03/17 06:33:08;;;;;;;4.68;0.80;;;3.40;97.30;;;;;;5026970;28;20037;-77
2021/03/17 06:35:34;;;;;;;7.20;1.30;;;3.40;97.20;;;;;;5012477;28;20064;-76
2021/03/17 06:38:00;;;;;;;4.63;0.77;;;3.40;97.20;;;;;;5012011;28;20100;-77
2021/03/17 06:40:31;;;;;;;6.32;1.20;;;3.50;97.20;;;;;;5008118;28;20034;-76
2021/03/17 06:43:09;;;;;;;5.63;1.15;;;3.50;97.20;;;;;;5011865;28;20088;-76
2021/03/17 06:45:37;;;;;;;8.30;0.90;;;3.50;97.30;;;;;;5023268;28;20053;-76
2021/03/17 06:48:24;;;;;;;4.88;0.90;;;3.60;97.40;;;;;;5029144;28;20136;-76
2021/03/17 06:51:13;;;;;;;5.18;0.82;;;3.70;97.20;;;;;;5015505;28;20044;-76
2021/03/17 06:53:44;;;;;;;6.07;0.85;;;3.70;96.90;;;;;;5011628;28;20107;-76
2021/03/17 06:56:34;;;;;;;4.43;0.80;;;3.70;96.90;;;;;;5022125;28;20124;-76
2021/03/17 06:59:02;;;;;;;7.35;0.85;;;3.80;96.90;;;;;;5009127;28;20065;-74
2021/03/17 07:01:32;;;;;;;10.73;1.20;;;3.70;96.60;;;;;;5021644;28;20037;-74
2021/03/17 07:04:06;;;;;;;8.25;1.73;;;3.70;96.60;;;;;;5020894;28;20438;-75
2021/03/17 07:06:34;;;;;;;7.32;1.45;;;3.80;96.80;;;;;;5027376;28;20083;-75
2021/03/17 07:09:27;;;;;;;5.80;1.63;;;3.90;96.70;;;;;;5041440;28;20037;-75
2021/03/17 07:12:04;;;;;;;4.18;0.82;;;4.10;96.40;;;;;;5020724;28;20581;-76
2021/03/17 07:14:36;;;;;;;5.70;1.15;;;4.10;96.20;;;;;;5017692;28;20049;-75
2021/03/17 07:17:01;;;;;;;8.52;1.27;;;4.20;95.80;;;;;;5030174;28;20128;-75
2021/03/17 07:19:37;;;;;;;6.72;1.25;;;4.30;95.80;;;;;;5020615;28;20526;-75
2021/03/17 07:22:06;;;;;;;10.02;1.65;;;4.30;95.40;;;;;;5026824;28;20413;-75
2021/03/17 07:24:31;;;;;;;8.25;1.50;;;4.30;95.40;;;;;;5023402;28;20809;-75
2021/03/17 07:27:14;;;;;;;9.68;1.67;;;4.20;95.20;;;;;;5024304;28;20132;-76
2021/03/17 07:29:40;;;;;;;10.18;1.67;;;4.10;94.90;;;;;;5029845;28;20037;-75
2021/03/17 07:32:08;;;;;;;11.07;1.80;;;4.10;94.90;;;;;;5021581;28;20433;-75
2021/03/17 07:34:34;;;;;;;10.45;1.30;;;4.10;95.20;;;;;;5029831;28;20316;-75
2021/03/17 07:37:02;;;;;;;6.22;1.08;;;4.20;95.40;;;;;;5025013;28;20061;-76
2021/03/17 07:39:31;;;;;;;10.52;1.45;;;4.40;95.30;;;;;;5042253;28;20060;-77
2021/03/17 07:41:59;;;;;;;4.00;0.90;;;4.50;95.00;;;;;;5023354;28;20462;-77
2021/03/17 07:44:26;;;;;;;6.38;1.20;;;4.60;94.80;;;;;;5028749;28;20060;-77
2021/03/17 07:46:59;;;;;;;7.25;1.33;;;4.60;94.80;;;;;;5019549;28;20091;-77
2021/03/17 07:49:27;;;;;;;6.57;1.30;;;4.70;95.00;;;;;;5031330;28;20037;-78
2021/03/17 07:51:56;;;;;;;6.68;1.50;;;4.70;94.50;;;;;;5023508;28;20041;-77
2021/03/17 07:54:31;;;;;;;6.20;1.10;;;4.60;94.20;;;;;;5014729;28;20038;-77
2021/03/17 07:56:59;;;;;;;5.47;0.70;;;4.60;93.80;;;;;;5021174;28;20417;-79
2021/03/17 07:59:27;;;;;;;8.40;1.38;;;4.70;94.30;;;;;;5029743;28;20038;-78
2021/03/17 08:01:55;;;;;;;9.15;1.27;;;4.80;94.00;;;;;;5020035;28;20057;-76
2021/03/17 08:04:31;;;;;;;9.55;1.85;;;4.80;93.50;;;;;;5024897;28;20164;-77
2021/03/17 08:07:14;;;;;;;10.55;1.73;;;5.00;93.40;;;;;;5016230;28;20033;-76
2021/03/17 08:09:40;;;;;;;8.32;1.23;;;5.20;93.40;;;;;;5030525;28;20037;-77
2021/03/17 08:12:11;;;;;;;8.90;1.40;;;5.50;92.40;;;;;;5017178;28;20063;-75
2021/03/17 08:14:41;;;;;;;7.95;1.20;;;5.60;90.90;;;;;;5019769;28;20052;-76
2021/03/17 08:17:31;;;;;;;11.68;1.50;;;5.70;91.10;;;;;;5016718;28;20430;-76
2021/03/17 08:20:24;;;;;;;7.28;2.15;;;5.80;90.40;;;;;;5006498;28;20121;-78
2021/03/17 08:22:53;;;;;;;8.25;1.50;;;6.00;90.70;;;;;;5017664;28;20041;-76
2021/03/17 08:25:43;;;;;;;9.68;1.30;;;6.10;89.60;;;;;;5019973;28;20033;-76
2021/03/17 08:28:22;;;;;;;6.25;1.25;;;6.30;88.80;;;;;;5016190;28;20041;-75
2021/03/17 08:30:50;;;;;;;8.20;1.13;;;6.40;88.20;;;;;;5031431;28;20042;-76
2021/03/17 08:33:36;;;;;;;7.80;1.00;;;6.50;87.00;;;;;;5019617;28;20037;-76
2021/03/17 08:36:06;;;;;;;9.63;1.17;;;6.70;86.60;;;;;;5013865;28;20195;-76
2021/03/17 08:38:54;;;;;;;7.80;1.20;;;6.80;83.20;;;;;;5021729;28;20108;-77
2021/03/17 08:41:42;;;;;;;6.95;1.20;;;6.90;80.30;;;;;;5019830;28;20125;-77
2021/03/17 08:44:21;;;;;;;11.70;0.98;;;7.10;78.90;;;;;;4997954;28;20046;-77
2021/03/17 08:46:47;;;;;;;3.78;0.60;;;7.10;78.00;;;;;;5040133;28;20057;-76
2021/03/17 08:49:25;;;;;;;8.48;0.90;;;7.20;80.00;;;;;;5013656;28;20048;-76
2021/03/17 08:51:51;;;;;;;7.40;0.90;;;7.20;78.50;;;;;;5019376;28;20061;-75
2021/03/17 08:54:35;;;;;;;7.45;1.27;;;7.10;77.80;;;;;;5009666;28;20042;-76
2021/03/17 08:57:04;;;;;;;10.73;1.13;;;7.00;75.00;;;;;;5017341;28;20053;-76
2021/03/17 09:00:00;;;;;;;6.93;0.85;;;6.90;77.80;;;;;;5015576;28;20332;-76
2021/03/17 09:02:25;;;;;;;;;;;6.80;77.70;;;;;;5014578;28;20034;-76
2021/03/17 09:04:59;;;;;;;9.10;1.15;;;6.60;75.00;;;;;;5013295;28;20411;-76
2021/03/17 09:07:30;;;;;;;9.32;1.02;;;6.50;79.70;;;;;;5018874;28;20121;-76
2021/03/17 09:09:57;;;;;;;8.25;1.05;;;6.50;78.50;;;;;;5019765;28;20044;-76
2021/03/17 09:12:25;;;;;;;7.70;0.98;;;6.40;79.30;;;;;;5019234;28;20060;-76
2021/03/17 09:15:10;;;;;;;13.88;1.50;;;6.40;80.00;;;;;;5015127;28;20033;-76
2021/03/17 09:17:44;;;;;;;9.68;1.50;;;6.40;79.30;;;;;;5015432;28;20540;-77
2021/03/17 09:20:21;;;;;;;7.95;1.38;;;6.40;81.20;;;;;;5016156;28;20037;-76
2021/03/17 09:23:35;;;;;;;7.97;1.27;;;6.40;80.50;;;;;;5013979;28;20462;-78
2021/03/17 09:26:01;;;;;;;8.98;1.42;;;6.60;80.00;;;;;;4971560;28;20516;-77
2021/03/17 09:28:34;;;;;;;8.98;1.20;;;6.60;84.40;;;;;;4968520;28;20137;-77
2021/03/17 09:31:06;;;;;;;7.07;1.30;;;6.50;84.50;;;;;;4995652;28;20116;-77
2021/03/17 09:33:39;;;;;;;12.02;1.88;;;6.50;84.50;;;;;;5024613;28;20033;-76
2021/03/17 09:36:08;;;;;;;6.65;1.10;;;6.50;82.90;;;;;;5020699;28;20103;-76
2021/03/17 09:38:39;;;;;;;5.78;0.95;;;6.50;85.40;;;;;;5012987;28;20033;-76
2021/03/17 09:41:10;;;;;;;7.95;1.20;;;6.60;85.80;;;;;;5016377;28;20087;-75
2021/03/17 09:43:40;;;;;;;6.75;1.00;;;6.70;85.50;;;;;;5012520;28;20144;-77
2021/03/17 09:46:44;;;;;;;8.80;1.45;;;6.90;86.30;;;;;;5038623;28;20437;-78
2021/03/17 09:49:15;;;;;;;7.65;1.30;;;7.00;78.80;;;;;;5028991;28;20049;-78
2021/03/17 09:51:53;;;;;;;6.05;0.95;;;7.20;84.00;;;;;;5023303;28;20077;-78
2021/03/17 09:54:27;;;;;;;10.27;1.27;;;7.30;80.30;;;;;;5015630;28;20103;-77
2021/03/17 09:57:01;;;;;;;9.70;1.48;;;7.30;81.00;;;;;;5017975;28;20099;-77
2021/03/17 09:59:39;;;;;;;9.23;1.45;;;7.40;83.40;;;;;;5022304;28;20038;-78
2021/03/17 10:02:24;;;;;;;7.22;1.33;;;7.40;82.50;;;;;;5019605;28;20053;-77
2021/03/17 10:04:52;;;;;;;9.65;1.20;;;7.40;81.20;;;;;;5016761;28;20450;-77
2021/03/17 10:07:22;;;;;;;8.50;1.15;;;7.40;82.10;;;;;;5021143;28;20063;-77
2021/03/17 10:09:50;;;;;;;7.60;1.73;;;7.40;82.40;;;;;;5018675;28;20092;-76
2021/03/17 10:12:21;;;;;;;6.22;0.80;;;7.40;82.20;;;;;;5014981;28;20124;-78
2021/03/17 10:14:50;;;;;;;7.45;1.27;;;7.40;81.60;;;;;;5015948;28;20076;-77
2021/03/17 10:17:17;;;;;;;6.97;1.15;;;7.30;80.80;;;;;;5010824;28;20058;-77
2021/03/17 10:19:47;;;;;;;8.30;1.30;;;7.20;79.70;;;;;;5018442;28;20045;-77
2021/03/17 10:22:16;;;;;;;4.55;1.10;;;7.10;81.60;;;;;;5022391;28;20056;-77
2021/03/17 10:24:45;;;;;;;6.10;1.25;;;7.20;83.90;;;;;;5022027;28;20080;-77
2021/03/17 10:27:19;;;;;;;7.63;1.13;;;7.40;81.10;;;;;;5010356;28;20050;-78
2021/03/17 10:29:48;;;;;;;8.80;1.08;;;7.60;80.30;;;;;;5014597;28;20398;-77
2021/03/17 10:32:20;;;;;;;10.43;1.25;;;7.70;79.80;;;;;;5016149;28;20046;-77
2021/03/17 10:34:46;;;;;;;8.57;1.10;;;7.70;79.30;;;;;;5029887;28;20107;-77
2021/03/17 10:37:20;;;;;;;5.95;1.00;;;7.70;79.30;;;;;;5022727;28;20470;-77
2021/03/17 10:39:47;;;;;;;5.43;0.85;;;7.70;79.80;;;;;;5018930;28;20048;-77
2021/03/17 10:42:27;;;;;;;3.75;0.88;;;7.60;80.50;;;;;;5015989;28;20508;-77
2021/03/17 10:45:00;;;;;;;6.20;1.08;;;7.70;80.10;;;;;;5029286;28;20057;-76
2021/03/17 10:47:27;;;;;;;11.30;1.15;;;7.80;81.90;;;;;;5019286;28;20045;-76
2021/03/17 10:49:53;;;;;;;5.47;0.60;;;7.70;77.10;;;;;;5020654;28;20406;-76
2021/03/17 10:52:18;;;;;;;10.75;1.40;;;7.60;78.20;;;;;;5022350;28;20053;-76
2021/03/17 10:54:46;;;;;;;7.90;1.52;;;7.60;79.30;;;;;;5019145;28;20050;-76
2021/03/17 10:57:22;;;;;;;5.28;0.60;;;7.40;78.30;;;;;;5015850;28;20093;-76
2021/03/17 10:59:49;;;;;;;7.68;1.50;;;7.50;76.00;;;;;;5024955;28;20076;-76
2021/03/17 11:02:22;;;;;;;7.93;1.08;;;7.50;78.90;;;;;;5024312;28;20486;-76
2021/03/17 11:05:03;;;;;;;7.75;1.10;;;7.50;78.20;;;;;;5023476;28;20042;-76
2021/03/17 11:07:50;;;;;;;7.70;0.90;;;7.60;77.40;;;;;;5029490;28;20045;-77
2021/03/17 11:10:41;;;;;;;8.07;0.85;;;7.60;75.60;;;;;;5020964;28;20111;-77
2021/03/17 11:13:10;;;;;;;4.43;0.80;;;7.60;75.00;;;;;;5031858;28;20425;-76
2021/03/17 11:15:42;;;;;;;6.50;1.30;;;7.70;74.90;;;;;;5027058;28;20668;-76
2021/03/17 11:18:09;;;;;;;4.13;1.05;;;7.60;74.80;;;;;;5020017;28;20044;-77
2021/03/17 11:20:43;;;;;;;6.05;0.70;;;7.60;76.10;;;;;;5021504;28;20040;-77
2021/03/17 11:23:18;;;;;;;5.72;0.73;;;7.60;73.90;;;;;;5024935;28;20061;-77
2021/03/17 11:25:45;;;;;;;5.95;0.90;;;7.60;74.40;;;;;;5029444;28;20041;-77
2021/03/17 11:28:12;;;;;;;3.50;0.60;;;7.60;77.00;;;;;;5029503;28;20053;-77
2021/03/17 11:30:59;;;;;;;7.22;1.02;;;7.50;73.40;;;;;;5024398;28;20033;-77
2021/03/17 11:33:27;;;;;;;4.30;0.80;;;7.50;72.30;;;;;;5021363;28;20053;-77
2021/03/17 11:35:56;;;;;;;6.35;0.85;;;7.60;74.30;;;;;;5018357;28;20425;-76
2021/03/17 11:38:22;;;;;;;4.40;0.68;;;7.70;74.10;;;;;;5017275;28;20453;-77
2021/03/17 11:40:49;;;;;;;6.03;0.85;;;7.80;71.40;;;;;;5019489;28;20136;-77
2021/03/17 11:43:17;;;;;;;5.95;0.93;;;7.80;69.00;;;;;;5027503;28;20501;-77
2021/03/17 11:45:45;;;;;;;4.40;0.80;;;7.90;71.20;;;;;;5028146;28;20037;-77
2021/03/17 11:48:12;;;;;;;4.50;0.88;;;7.90;70.10;;;;;;5017969;28;20121;-77
2021/03/17 11:50:40;;;;;;;3.85;0.57;;;7.90;70.50;;;;;;5018812;28;20438;-77
2021/03/17 11:53:06;;;;;;;4.65;1.08;;;7.90;70.50;;;;;;5024360;28;20050;-77
2021/03/17 11:55:33;;;;;;;5.72;0.63;;;7.90;70.10;;;;;;5025107;28;20039;-77
2021/03/17 11:57:59;;;;;;;3.28;0.50;;;7.90;69.70;;;;;;5024670;28;20654;-77
2021/03/17 12:00:25;;;;;;;3.65;0.50;;;7.90;69.80;;;;;;5023738;28;20052;-76
2021/03/17 12:02:52;;;;;;;3.38;0.47;;;8.00;69.20;;;;;;5027401;28;20041;-78
2021/03/17 12:05:19;;;;;;;4.32;0.82;;;8.10;68.80;;;;;;5024246;28;20087;-77
2021/03/17 12:07:45;;;;;;;3.28;0.60;;;8.10;67.70;;;;;;5022860;28;20112;-75
2021/03/17 12:10:12;;;;;;;2.20;0.57;;;8.00;68.80;;;;;;5025155;28;20041;-74
2021/03/17 12:12:38;;;;;;;5.70;0.75;;;8.00;68.00;;;;;;5019283;28;20494;-75
2021/03/17 12:15:08;;;;;;;6.80;0.90;;;8.10;68.80;;;;;;5019322;28;20121;-75
2021/03/17 12:17:35;;;;;;;5.22;0.93;;;8.10;68.00;;;;;;5018843;28;20122;-76
2021/03/17 12:20:01;;;;;;;5.05;0.73;;;8.10;68.40;;;;;;5020966;28;20566;-76
2021/03/17 12:22:27;;;;;;;6.95;0.60;;;8.10;69.00;;;;;;5026843;28;20049;-76
2021/03/17 12:24:53;;;;;;;5.80;1.42;;;8.20;67.90;;;;;;5016081;28;20045;-76
2021/03/17 12:27:19;;;;;;;4.78;0.60;;;8.30;69.00;;;;;;5020395;28;20125;-76
2021/03/17 12:29:44;;;;;;;5.07;0.90;;;8.40;67.90;;;;;;5020977;28;20038;-77
2021/03/17 12:32:10;;;;;;;5.82;0.82;;;8.50;67.40;;;;;;5037258;28;20056;-77
2021/03/17 12:34:37;;;;;;;8.52;0.80;;;8.40;66.60;;;;;;5021427;28;20416;-77
2021/03/17 12:37:02;;;;;;;3.42;0.60;;;8.30;66.50;;;;;;5006653;28;20041;-76
2021/03/17 12:39:28;;;;;;;5.18;0.77;;;8.10;65.50;;;;;;5025155;28;20042;-76
2021/03/17 12:41:54;;;;;;;5.18;0.75;;;8.00;66.70;;;;;;5025947;28;20045;-76
2021/03/17 12:44:20;;;;;;;4.50;0.47;;;8.10;67.20;;;;;;5010737;28;20365;-76
2021/03/17 12:46:46;;;;;;;4.68;0.57;;;8.20;67.10;;;;;;5019912;28;20033;-76
2021/03/17 12:49:12;;;;;;;4.10;1.05;;;8.30;66.00;;;;;;5011498;28;20044;-76
2021/03/17 12:51:37;;;;;;;5.32;0.50;;;8.20;64.60;;;;;;5022309;28;20071;-76
2021/03/17 12:54:03;;;;;;;4.32;0.82;;;8.20;65.00;;;;;;5010730;28;20100;-77
2021/03/17 12:56:29;;;;;;;4.00;0.50;;;8.10;65.00;;;;;;5022183;28;20072;-77
2021/03/17 12:58:55;;;;;;;5.40;0.70;;;8.00;64.90;;;;;;5025681;28;20061;-77
2021/03/17 13:01:21;;;;;;;4.05;0.95;;;8.00;65.70;;;;;;5026943;28;20073;-76
2021/03/17 13:03:47;;;;;;;3.08;0.40;;;8.00;65.90;;;;;;5030815;28;20084;-76
2021/03/17 13:06:12;;;;;;;4.38;0.60;;;8.00;65.60;;;;;;5026529;28;20038;-76
2021/03/17 13:08:38;;;;;;;4.13;0.55;;;8.00;64.90;;;;;;5023967;28;20037;-76
2021/03/17 13:11:05;;;;;;;6.05;0.82;;;8.10;65.70;;;;;;5017944;28;20042;-76
2021/03/17 13:13:31;;;;;;;5.47;0.70;;;8.10;64.90;;;;;;5020430;28;20052;-77
2021/03/17 13:15:57;;;;;;;5.32;0.88;;;8.20;65.60;;;;;;5024734;28;20041;-77